createdAt,value
2022-12-18T00:02:02.013Z,-3.02
2022-12-18T00:05:09.696Z,-3.08
2022-12-18T00:08:15.510Z,-3.03
2022-12-18T00:11:23.053Z,-3.04
2022-12-18T00:14:27.254Z,-3.17
2022-12-18T00:17:35.323Z,-3.08
2022-12-18T00:20:42.279Z,-3.13
2022-12-18T00:23:50.033Z,-3.26
2022-12-18T00:26:56.912Z,-3.18
2022-12-18T00:30:04.604Z,-3.20
2022-12-18T00:33:10.581Z,-3.20
2022-12-18T00:36:20.115Z,-3.11
2022-12-18T00:39:24.386Z,-3.17
2022-12-18T00:42:49.804Z,-3.21
2022-12-18T00:45:57.800Z,-3.18
2022-12-18T00:49:04.872Z,-3.23
2022-12-18T00:52:10.894Z,-3.25
2022-12-18T00:55:18.485Z,-3.26
2022-12-18T00:58:25.737Z,-3.29
2022-12-18T01:01:33.139Z,-3.25
2022-12-18T01:04:40.317Z,-3.33
2022-12-18T01:07:45.716Z,-3.32
2022-12-18T01:10:51.503Z,-3.32
2022-12-18T01:13:59.354Z,-3.33
2022-12-18T01:17:06.138Z,-3.40
2022-12-18T01:20:12.984Z,-3.36
2022-12-18T01:23:20.268Z,-3.37
2022-12-18T01:26:27.373Z,-3.34
2022-12-18T01:29:35.056Z,-3.37
2022-12-18T01:32:43.527Z,-3.37
2022-12-18T01:35:49.980Z,-3.36
2022-12-18T01:38:58.114Z,-3.40
2022-12-18T01:42:06.041Z,-3.44
2022-12-18T01:45:14.321Z,-3.46
2022-12-18T01:48:21.032Z,-3.46
2022-12-18T01:51:28.704Z,-3.53
2022-12-18T01:54:35.869Z,-3.34
2022-12-18T01:57:44.102Z,-3.37
2022-12-18T02:00:49.777Z,-3.41
2022-12-18T02:04:20.371Z,-3.38
2022-12-18T02:07:32.153Z,-3.41
2022-12-18T02:10:46.405Z,-3.44
2022-12-18T02:14:02.948Z,-3.28
2022-12-18T02:17:13.560Z,-3.29
2022-12-18T02:20:22.413Z,-3.32
2022-12-18T02:23:30.350Z,-3.38
2022-12-18T02:26:37.964Z,-3.47
2022-12-18T02:29:58.773Z,-3.49
2022-12-18T02:33:09.449Z,-3.54
2022-12-18T02:36:20.301Z,-3.48
2022-12-18T02:39:30.935Z,-3.49
2022-12-18T02:42:37.790Z,-3.43
2022-12-18T02:45:53.350Z,-3.56
2022-12-18T02:49:10.418Z,-3.53
2022-12-18T02:52:20.972Z,-3.57
2022-12-18T02:55:39.956Z,-3.68
2022-12-18T02:59:03.271Z,-3.59
2022-12-18T03:02:16.173Z,-3.59
2022-12-18T03:05:25.901Z,-3.66
2022-12-18T03:08:32.652Z,-3.61
2022-12-18T03:12:00.543Z,-3.68
2022-12-18T03:15:17.928Z,-3.60
2022-12-18T03:18:38.287Z,-3.75
2022-12-18T03:21:49.135Z,-3.72
2022-12-18T03:24:57.792Z,-3.73
2022-12-18T03:28:07.249Z,-3.82
2022-12-18T03:31:14.674Z,-3.85
2022-12-18T03:34:25.049Z,-3.79
2022-12-18T03:37:34.597Z,-3.70
2022-12-18T03:40:42.750Z,-3.83
2022-12-18T03:43:53.843Z,-3.86
2022-12-18T03:47:08.005Z,-3.91
2022-12-18T03:50:29.280Z,-3.94
2022-12-18T03:53:55.214Z,-3.97
2022-12-18T03:57:07.597Z,-4.01
2022-12-18T04:00:15.095Z,-4.14
2022-12-18T04:03:30.730Z,-4.31
2022-12-18T04:06:38.368Z,-4.52
2022-12-18T04:09:47.663Z,-4.32
2022-12-18T04:12:58.097Z,-4.22
2022-12-18T04:16:05.654Z,-4.41
2022-12-18T04:19:13.861Z,-4.19
2022-12-18T04:22:21.226Z,-4.16
2022-12-18T04:25:32.487Z,-4.23
2022-12-18T04:28:42.483Z,-4.20
2022-12-18T04:31:49.180Z,-4.29
2022-12-18T04:34:56.739Z,-4.34
2022-12-18T04:38:02.505Z,-4.44
2022-12-18T04:41:11.998Z,-4.25
2022-12-18T04:44:19.442Z,-4.31
2022-12-18T04:47:25.034Z,-4.29
2022-12-18T04:50:31.846Z,-4.25
2022-12-18T04:53:41.146Z,-4.04
2022-12-18T04:56:46.937Z,-4.13
2022-12-18T04:59:53.558Z,-4.30
2022-12-18T05:03:01.376Z,-4.38
2022-12-18T05:06:09.702Z,-4.45
2022-12-18T05:09:16.337Z,-4.29
2022-12-18T05:12:23.914Z,-4.31
2022-12-18T05:15:31.378Z,-4.27
2022-12-18T05:18:40.870Z,-4.47
2022-12-18T05:21:46.786Z,-4.63
2022-12-18T05:24:55.435Z,-4.60
2022-12-18T05:28:01.411Z,-4.54
2022-12-18T05:31:09.895Z,-4.65
2022-12-18T05:34:16.767Z,-4.69
2022-12-18T05:37:24.121Z,-4.62
2022-12-18T05:40:33.280Z,-4.74
2022-12-18T05:43:41.828Z,-4.72
2022-12-18T05:46:51.534Z,-4.65
2022-12-18T05:49:59.465Z,-4.58
2022-12-18T05:53:05.294Z,-4.61
2022-12-18T05:56:16.077Z,-4.62
2022-12-18T05:59:22.195Z,-4.66
2022-12-18T06:02:31.084Z,-4.55
2022-12-18T06:05:39.710Z,-4.64
2022-12-18T06:08:46.884Z,-4.73
2022-12-18T06:11:55.334Z,-4.71
2022-12-18T06:15:02.312Z,-4.73
2022-12-18T06:18:09.660Z,-4.61
2022-12-18T06:21:16.284Z,-4.51
2022-12-18T06:24:23.745Z,-4.49
2022-12-18T06:27:30.794Z,-4.67
2022-12-18T06:30:37.915Z,-4.60
2022-12-18T06:33:45.033Z,-4.66
2022-12-18T06:36:55.811Z,-4.58
2022-12-18T06:40:01.080Z,-4.43
2022-12-18T06:43:10.860Z,-4.39
2022-12-18T06:46:17.385Z,-4.32
2022-12-18T06:49:30.249Z,-4.34
2022-12-18T06:52:39.908Z,-4.40
2022-12-18T06:55:46.881Z,-4.50
2022-12-18T06:58:54.746Z,-4.54
2022-12-18T07:02:01.872Z,-4.76
2022-12-18T07:05:10.953Z,-4.87
2022-12-18T07:08:19.501Z,-4.77
2022-12-18T07:11:26.044Z,-4.79
2022-12-18T07:14:34.986Z,-4.71
2022-12-18T07:17:41.401Z,-4.65
2022-12-18T07:20:49.203Z,-4.60
2022-12-18T07:23:57.427Z,-4.43
2022-12-18T07:27:05.143Z,-4.43
2022-12-18T07:30:16.791Z,-4.44
2022-12-18T07:33:23.966Z,-4.45
2022-12-18T07:36:31.891Z,-4.33
2022-12-18T07:39:39.702Z,-4.30
2022-12-18T07:42:45.638Z,-4.25
2022-12-18T07:45:54.190Z,-4.25
2022-12-18T07:49:01.978Z,-4.23
2022-12-18T07:52:10.037Z,-4.23
2022-12-18T07:55:16.855Z,-4.19
2022-12-18T07:58:26.863Z,-4.21
2022-12-18T08:01:34.620Z,-4.19
2022-12-18T08:04:41.091Z,-4.11
2022-12-18T08:07:46.763Z,-4.07
2022-12-18T08:10:53.529Z,-4.04
2022-12-18T08:14:01.077Z,-3.95
2022-12-18T08:17:07.816Z,-3.89
2022-12-18T08:20:13.023Z,-3.71
2022-12-18T08:23:19.158Z,-3.63
2022-12-18T08:26:25.309Z,-3.45
2022-12-18T08:29:32.631Z,-3.35
2022-12-18T08:32:39.023Z,-3.38
2022-12-18T08:35:46.095Z,-3.43
2022-12-18T08:38:53.065Z,-3.35
2022-12-18T08:42:21.067Z,-3.40
2022-12-18T08:45:26.801Z,-3.27
2022-12-18T08:48:34.687Z,-3.14
2022-12-18T08:51:41.417Z,-3.07
2022-12-18T08:54:50.284Z,-3.15
2022-12-18T08:57:59.555Z,-3.15
2022-12-18T09:01:09.388Z,-3.12
2022-12-18T09:04:15.342Z,-2.99
2022-12-18T09:07:20.350Z,-2.68
2022-12-18T09:10:25.332Z,-2.60
2022-12-18T09:13:33.047Z,-2.60
2022-12-18T09:16:40.323Z,-2.53
2022-12-18T09:19:49.109Z,-2.47
2022-12-18T09:22:54.139Z,-2.48
2022-12-18T09:26:04.683Z,-2.37
2022-12-18T09:29:11.122Z,-2.27
2022-12-18T09:32:22.160Z,-2.31
2022-12-18T09:35:30.358Z,-2.04
2022-12-18T09:38:39.330Z,-2.05
2022-12-18T09:41:49.361Z,-2.20
2022-12-18T09:44:55.490Z,-2.18
2022-12-18T09:48:03.712Z,-1.93
2022-12-18T09:51:13.661Z,-2.00
2022-12-18T09:54:23.243Z,-1.92
2022-12-18T09:57:30.569Z,-1.96
2022-12-18T10:00:34.772Z,-1.81
2022-12-18T10:03:40.866Z,-1.80
2022-12-18T10:06:46.980Z,-1.61
2022-12-18T10:09:57.372Z,-1.65
2022-12-18T10:13:17.480Z,-1.52
2022-12-18T10:16:27.833Z,-1.45
2022-12-18T10:19:51.823Z,-1.41
2022-12-18T10:23:04.401Z,-1.30
2022-12-18T10:26:10.433Z,-0.99
2022-12-18T10:29:17.581Z,-1.02
2022-12-18T10:32:24.657Z,-1.10
2022-12-18T10:35:32.275Z,-1.09
2022-12-18T10:38:42.740Z,-0.98
2022-12-18T10:41:47.930Z,-0.82
2022-12-18T10:45:03.359Z,-0.84
2022-12-18T10:48:19.912Z,-0.66
2022-12-18T10:51:27.076Z,-0.50
2022-12-18T10:54:36.805Z,-0.49
2022-12-18T10:57:43.630Z,-0.49
2022-12-18T11:01:03.876Z,-0.48
2022-12-18T11:04:13.405Z,-0.24
2022-12-18T11:07:18.966Z,-0.18
2022-12-18T11:10:33.967Z,-0.18
2022-12-18T11:13:40.067Z,-0.17
2022-12-18T11:17:03.136Z,-0.13
2022-12-18T11:20:32.248Z,-0.13
2022-12-18T11:23:39.047Z,0.01
2022-12-18T11:26:46.106Z,0.04
2022-12-18T11:29:52.457Z,0.08
2022-12-18T11:33:04.940Z,0.26
2022-12-18T11:36:11.827Z,0.31
2022-12-18T11:39:20.349Z,0.32
2022-12-18T11:42:27.566Z,0.28
2022-12-18T11:45:37.428Z,0.31
2022-12-18T11:48:51.567Z,0.58
2022-12-18T11:52:06.582Z,0.58
2022-12-18T11:55:16.934Z,0.56
2022-12-18T11:58:40.525Z,0.61
2022-12-18T12:01:55.125Z,0.79
2022-12-18T12:05:21.238Z,1.17
2022-12-18T12:08:39.637Z,1.28
2022-12-18T12:12:04.951Z,1.68
2022-12-18T12:15:25.875Z,1.83
2022-12-18T12:18:39.567Z,1.80
2022-12-18T12:21:50.543Z,1.59
2022-12-18T12:25:15.101Z,1.60
2022-12-18T12:28:36.449Z,1.43
2022-12-18T12:31:40.365Z,1.45
2022-12-18T12:34:46.480Z,1.57
2022-12-18T12:38:14.305Z,1.77
2022-12-18T12:41:39.334Z,1.59
2022-12-18T12:44:55.659Z,1.35
2022-12-18T12:48:05.487Z,1.24
2022-12-18T12:51:30.610Z,1.24
2022-12-18T12:54:37.865Z,1.19
2022-12-18T12:57:48.930Z,1.21
2022-12-18T13:01:17.260Z,1.26
2022-12-18T13:04:41.829Z,1.26
2022-12-18T13:08:12.061Z,1.22
2022-12-18T13:11:57.861Z,1.21
2022-12-18T13:15:24.333Z,1.33
2022-12-18T13:18:35.761Z,1.42
2022-12-18T13:21:42.530Z,1.31
2022-12-18T13:24:49.408Z,1.17
2022-12-18T13:28:17.073Z,1.10
2022-12-18T13:31:25.289Z,1.09
2022-12-18T13:34:31.556Z,1.10
2022-12-18T13:37:42.829Z,1.19
2022-12-18T13:40:50.807Z,1.26
2022-12-18T13:44:01.297Z,1.11
2022-12-18T13:47:07.007Z,0.96
2022-12-18T13:50:34.060Z,0.84
2022-12-18T13:53:54.977Z,0.92
2022-12-18T13:57:01.622Z,0.88
2022-12-18T14:00:34.785Z,0.83
2022-12-18T14:03:38.338Z,0.79
2022-12-18T14:06:45.865Z,0.73
2022-12-18T14:10:01.993Z,0.62
2022-12-18T14:13:22.222Z,0.48
2022-12-18T14:16:27.881Z,0.39
2022-12-18T14:19:34.541Z,0.34
2022-12-18T14:22:45.102Z,0.21
2022-12-18T14:25:51.520Z,0.04
2022-12-18T14:29:01.635Z,-0.03
2022-12-18T14:32:17.812Z,-0.11
2022-12-18T14:35:24.464Z,-0.23
2022-12-18T14:38:41.489Z,-0.36
2022-12-18T14:41:50.404Z,-0.46
2022-12-18T14:45:14.881Z,-0.59
2022-12-18T14:48:22.833Z,-0.67
2022-12-18T14:51:28.952Z,-0.80
2022-12-18T14:54:37.475Z,-0.81
2022-12-18T14:57:45.266Z,-0.89
2022-12-18T15:00:54.240Z,-0.95
2022-12-18T15:04:02.347Z,-1.00
2022-12-18T15:07:24.753Z,-1.10
2022-12-18T15:10:35.535Z,-1.13
2022-12-18T15:13:43.326Z,-1.25
2022-12-18T15:16:54.257Z,-1.34
2022-12-18T15:20:05.559Z,-1.41
2022-12-18T15:23:19.425Z,-1.48
2022-12-18T15:26:24.904Z,-1.56
2022-12-18T15:29:30.295Z,-1.66
2022-12-18T15:32:40.311Z,-1.76
2022-12-18T15:35:47.837Z,-1.77
2022-12-18T15:38:54.992Z,-1.82
2022-12-18T15:42:21.179Z,-1.86
2022-12-18T15:45:27.401Z,-1.89
2022-12-18T15:48:33.148Z,-1.93
2022-12-18T15:51:42.865Z,-2.02
2022-12-18T15:55:07.881Z,-2.05
2022-12-18T15:58:14.726Z,-2.09
2022-12-18T16:01:22.593Z,-1.94
2022-12-18T16:04:28.600Z,-1.97
2022-12-18T16:07:36.052Z,-2.10
2022-12-18T16:10:44.769Z,-2.22
2022-12-18T16:13:54.126Z,-2.28
2022-12-18T16:17:02.532Z,-2.32
2022-12-18T16:20:11.724Z,-2.35
2022-12-18T16:23:22.399Z,-2.34
2022-12-18T16:26:26.725Z,-2.38
2022-12-18T16:29:33.714Z,-2.32
2022-12-18T16:32:39.381Z,-2.40
2022-12-18T16:35:46.263Z,-2.40
2022-12-18T16:38:53.285Z,-2.49
2022-12-18T16:41:59.531Z,-2.55
2022-12-18T16:45:08.153Z,-2.54
2022-12-18T16:48:16.517Z,-2.52
2022-12-18T16:51:25.008Z,-2.53
2022-12-18T16:54:32.543Z,-2.59
2022-12-18T16:57:39.373Z,-2.57
2022-12-18T17:00:47.515Z,-2.63
2022-12-18T17:03:56.957Z,-2.73
2022-12-18T17:07:03.541Z,-2.78
2022-12-18T17:10:10.191Z,-2.84
2022-12-18T17:13:24.172Z,-2.89
2022-12-18T17:16:30.605Z,-2.95
2022-12-18T17:19:39.771Z,-3.04
2022-12-18T17:22:47.241Z,-3.10
2022-12-18T17:25:55.872Z,-3.16
2022-12-18T17:29:00.556Z,-3.18
2022-12-18T17:32:06.653Z,-3.19
2022-12-18T17:35:12.840Z,-3.21
2022-12-18T17:38:20.358Z,-3.27
2022-12-18T17:41:26.221Z,-3.32
2022-12-18T17:44:33.226Z,-3.37
2022-12-18T17:47:38.312Z,-3.41
2022-12-18T17:50:45.250Z,-3.44
2022-12-18T17:53:50.565Z,-3.45
2022-12-18T17:56:59.151Z,-3.47
2022-12-18T18:00:06.890Z,-3.48
2022-12-18T18:03:13.706Z,-3.52
2022-12-18T18:06:21.324Z,-3.54
2022-12-18T18:09:26.483Z,-3.58
2022-12-18T18:12:54.337Z,-3.66
2022-12-18T18:16:00.800Z,-3.77
2022-12-18T18:19:10.203Z,-3.76
2022-12-18T18:22:18.703Z,-3.77
2022-12-18T18:25:26.422Z,-3.73
2022-12-18T18:28:34.169Z,-3.75
2022-12-18T18:31:42.961Z,-3.78
2022-12-18T18:34:49.810Z,-3.83
2022-12-18T18:37:58.122Z,-3.89
2022-12-18T18:41:05.118Z,-3.98
2022-12-18T18:44:13.620Z,-3.97
2022-12-18T18:47:21.338Z,-3.96
2022-12-18T18:50:28.234Z,-3.98
2022-12-18T18:53:41.501Z,-4.00
2022-12-18T18:57:19.490Z,-4.09
2022-12-18T19:00:20.247Z,-4.18
2022-12-18T19:03:28.394Z,-4.21
2022-12-18T19:06:34.438Z,-4.23
2022-12-18T19:09:39.825Z,-4.19
2022-12-18T19:13:05.279Z,-4.18
2022-12-18T19:16:12.798Z,-4.18
2022-12-18T19:19:22.692Z,-4.18
2022-12-18T19:22:30.318Z,-4.03
2022-12-18T19:25:40.303Z,-3.80
2022-12-18T19:28:46.721Z,-3.94
2022-12-18T19:31:55.206Z,-4.04
2022-12-18T19:35:04.163Z,-4.14
2022-12-18T19:38:10.014Z,-4.23
2022-12-18T19:41:21.276Z,-4.27
2022-12-18T19:44:27.672Z,-4.30
2022-12-18T19:47:36.209Z,-4.32
2022-12-18T19:50:43.419Z,-4.35
2022-12-18T19:53:54.969Z,-4.33
2022-12-18T19:57:04.405Z,-4.18
2022-12-18T20:00:16.900Z,-4.08
2022-12-18T20:03:32.135Z,-4.18
2022-12-18T20:06:46.976Z,-4.33
2022-12-18T20:10:02.561Z,-4.42
2022-12-18T20:13:11.253Z,-4.48
2022-12-18T20:16:18.209Z,-4.54
2022-12-18T20:19:23.901Z,-4.57
2022-12-18T20:22:32.816Z,-4.60
2022-12-18T20:25:42.129Z,-4.61
2022-12-18T20:28:50.832Z,-4.66
2022-12-18T20:31:58.582Z,-4.66
2022-12-18T20:35:07.548Z,-4.63
2022-12-18T20:38:15.534Z,-4.67
2022-12-18T20:41:22.563Z,-4.69
2022-12-18T20:44:27.865Z,-4.53
2022-12-18T20:47:32.791Z,-4.59
2022-12-18T20:50:39.217Z,-4.68
2022-12-18T20:53:46.775Z,-4.47
2022-12-18T20:56:54.003Z,-4.32
2022-12-18T21:00:00.348Z,-4.35
2022-12-18T21:03:07.371Z,-4.51
2022-12-18T21:06:16.743Z,-4.50
2022-12-18T21:09:25.566Z,-4.39
2022-12-18T21:12:46.272Z,-4.43
2022-12-18T21:16:04.843Z,-4.46
2022-12-18T21:19:16.772Z,-4.45
2022-12-18T21:22:24.079Z,-4.16
2022-12-18T21:25:31.748Z,-4.11
2022-12-18T21:28:40.352Z,-4.14
2022-12-18T21:31:47.867Z,-4.10
2022-12-18T21:34:55.455Z,-4.19
2022-12-18T21:38:04.325Z,-4.20
2022-12-18T21:41:31.633Z,-4.13
2022-12-18T21:44:41.836Z,-4.16
2022-12-18T21:47:48.502Z,-4.22
2022-12-18T21:50:53.576Z,-4.38
2022-12-18T21:53:56.498Z,-4.31
2022-12-18T21:57:02.604Z,-4.31
2022-12-18T22:00:08.265Z,-4.34
2022-12-18T22:03:18.154Z,-4.42
2022-12-18T22:06:27.291Z,-4.42
2022-12-18T22:09:32.391Z,-4.49
2022-12-18T22:12:44.429Z,-4.34
2022-12-18T22:15:52.455Z,-4.47
2022-12-18T22:18:59.064Z,-4.51
2022-12-18T22:22:07.184Z,-4.41
2022-12-18T22:25:15.474Z,-4.41
2022-12-18T22:28:39.409Z,-4.34
2022-12-18T22:31:46.847Z,-4.43
2022-12-18T22:34:54.791Z,-4.67
2022-12-18T22:38:01.944Z,-4.86
2022-12-18T22:41:09.920Z,-4.61
2022-12-18T22:44:18.859Z,-4.60
2022-12-18T22:47:29.728Z,-4.67
2022-12-18T22:50:38.169Z,-4.69
2022-12-18T22:53:43.690Z,-4.67
2022-12-18T22:56:51.679Z,-4.63
2022-12-18T22:59:56.284Z,-4.77
2022-12-18T23:03:04.560Z,-4.74
2022-12-18T23:06:15.992Z,-4.77
2022-12-18T23:09:26.728Z,-4.72
2022-12-18T23:12:39.887Z,-4.94
2022-12-18T23:15:45.869Z,-4.96
2022-12-18T23:18:57.607Z,-5.00
2022-12-18T23:22:11.549Z,-5.00
2022-12-18T23:25:18.484Z,-4.93
2022-12-18T23:28:28.243Z,-5.00
2022-12-18T23:31:36.357Z,-5.07
2022-12-18T23:34:45.165Z,-5.15
2022-12-18T23:37:59.124Z,-5.06
2022-12-18T23:41:16.103Z,-4.83
2022-12-18T23:44:22.221Z,-4.62
2022-12-18T23:47:28.506Z,-4.40
2022-12-18T23:50:35.992Z,-4.51
2022-12-18T23:53:44.096Z,-4.36
2022-12-18T23:56:49.031Z,-4.28
2022-12-18T23:59:57.324Z,-4.29
